sensor_id;sensor_type;location;lat;lon;timestamp;temperature;humidity
60039;DHT22;45916;52.734;6.544;2022-12-11T00:01:35;-0.20;99.90
60039;DHT22;45916;52.734;6.544;2022-12-11T00:04:00;-0.20;99.90
60039;DHT22;45916;52.734;6.544;2022-12-11T00:06:26;-0.20;99.90
60039;DHT22;45916;52.734;6.544;2022-12-11T00:08:53;-0.20;99.90
60039;DHT22;45916;52.734;6.544;2022-12-11T00:11:20;-0.20;99.90
60039;DHT22;45916;52.734;6.544;2022-12-11T00:13:46;-0.20;99.90
60039;DHT22;45916;52.734;6.544;2022-12-11T00:16:14;-0.20;99.90
60039;DHT22;45916;52.734;6.544;2022-12-11T00:18:40;-0.20;99.90
60039;DHT22;45916;52.734;6.544;2022-12-11T00:21:09;-0.20;99.90
60039;DHT22;45916;52.734;6.544;2022-12-11T00:23:36;-0.30;99.90
60039;DHT22;45916;52.734;6.544;2022-12-11T00:26:07;-0.20;99.90
60039;DHT22;45916;52.734;6.544;2022-12-11T00:28:33;-0.20;99.90
60039;DHT22;45916;52.734;6.544;2022-12-11T00:30:58;-0.20;99.90
60039;DHT22;45916;52.734;6.544;2022-12-11T00:33:27;-0.20;99.90
60039;DHT22;45916;52.734;6.544;2022-12-11T00:35:53;-0.20;99.90
60039;DHT22;45916;52.734;6.544;2022-12-11T00:38:20;-0.20;99.90
60039;DHT22;45916;52.734;6.544;2022-12-11T00:40:46;-0.20;99.90
60039;DHT22;45916;52.734;6.544;2022-12-11T00:43:12;-0.20;99.90
60039;DHT22;45916;52.734;6.544;2022-12-11T00:45:44;-0.20;99.90
60039;DHT22;45916;52.734;6.544;2022-12-11T00:48:11;-0.20;99.90
60039;DHT22;45916;52.734;6.544;2022-12-11T00:50:38;-0.20;99.90
60039;DHT22;45916;52.734;6.544;2022-12-11T00:53:05;-0.10;99.90
60039;DHT22;45916;52.734;6.544;2022-12-11T00:55:35;-0.20;99.90
60039;DHT22;45916;52.734;6.544;2022-12-11T00:58:02;-0.10;99.90
60039;DHT22;45916;52.734;6.544;2022-12-11T01:00:27;-0.10;99.90
60039;DHT22;45916;52.734;6.544;2022-12-11T01:02:53;-0.10;99.90
60039;DHT22;45916;52.734;6.544;2022-12-11T01:05:19;-0.10;99.90
60039;DHT22;45916;52.734;6.544;2022-12-11T01:07:44;-0.10;99.90
60039;DHT22;45916;52.734;6.544;2022-12-11T01:10:11;0.00;99.90
60039;DHT22;45916;52.734;6.544;2022-12-11T01:13:08;-0.10;99.90
60039;DHT22;45916;52.734;6.544;2022-12-11T01:15:39;0.00;99.90
60039;DHT22;45916;52.734;6.544;2022-12-11T01:18:05;-0.10;99.90
60039;DHT22;45916;52.734;6.544;2022-12-11T01:20:31;0.00;99.90
60039;DHT22;45916;52.734;6.544;2022-12-11T01:22:59;-0.10;99.90
60039;DHT22;45916;52.734;6.544;2022-12-11T01:25:26;0.00;99.90
60039;DHT22;45916;52.734;6.544;2022-12-11T01:27:53;0.00;99.90
60039;DHT22;45916;52.734;6.544;2022-12-11T01:30:21;0.10;99.90
60039;DHT22;45916;52.734;6.544;2022-12-11T01:32:47;0.00;99.90
60039;DHT22;45916;52.734;6.544;2022-12-11T01:35:13;0.00;99.90
60039;DHT22;45916;52.734;6.544;2022-12-11T01:37:39;0.00;99.90
60039;DHT22;45916;52.734;6.544;2022-12-11T01:40:06;0.00;99.90
60039;DHT22;45916;52.734;6.544;2022-12-11T01:42:33;0.00;99.90
60039;DHT22;45916;52.734;6.544;2022-12-11T01:48:09;0.00;99.90
60039;DHT22;45916;52.734;6.544;2022-12-11T01:51:08;0.00;99.90
60039;DHT22;45916;52.734;6.544;2022-12-11T01:53:32;0.10;99.90
60039;DHT22;45916;52.734;6.544;2022-12-11T01:55:58;0.00;99.90
60039;DHT22;45916;52.734;6.544;2022-12-11T01:58:31;0.00;99.90
60039;DHT22;45916;52.734;6.544;2022-12-11T02:00:59;0.10;99.90
60039;DHT22;45916;52.734;6.544;2022-12-11T02:03:26;0.10;99.90
60039;DHT22;45916;52.734;6.544;2022-12-11T02:05:51;0.10;99.90
60039;DHT22;45916;52.734;6.544;2022-12-11T02:08:17;0.10;99.90
60039;DHT22;45916;52.734;6.544;2022-12-11T02:11:13;0.10;99.90
60039;DHT22;45916;52.734;6.544;2022-12-11T02:13:59;0.10;99.90
60039;DHT22;45916;52.734;6.544;2022-12-11T02:16:54;0.10;99.90
60039;DHT22;45916;52.734;6.544;2022-12-11T02:22:12;0.20;99.90
60039;DHT22;45916;52.734;6.544;2022-12-11T02:24:57;0.20;99.90
60039;DHT22;45916;52.734;6.544;2022-12-11T02:27:40;0.20;99.90
60039;DHT22;45916;52.734;6.544;2022-12-11T02:30:15;0.10;99.90
60039;DHT22;45916;52.734;6.544;2022-12-11T02:32:53;0.10;99.90
60039;DHT22;45916;52.734;6.544;2022-12-11T02:35:33;0.20;99.90
60039;DHT22;45916;52.734;6.544;2022-12-11T02:38:23;0.20;99.90
60039;DHT22;45916;52.734;6.544;2022-12-11T02:40:53;0.10;99.90
60039;DHT22;45916;52.734;6.544;2022-12-11T02:43:21;0.10;99.90
60039;DHT22;45916;52.734;6.544;2022-12-11T02:45:49;0.20;99.90
60039;DHT22;45916;52.734;6.544;2022-12-11T02:48:16;0.20;99.90
60039;DHT22;45916;52.734;6.544;2022-12-11T02:50:45;0.20;99.90
60039;DHT22;45916;52.734;6.544;2022-12-11T02:53:13;0.10;99.90
60039;DHT22;45916;52.734;6.544;2022-12-11T02:55:43;0.20;99.90
60039;DHT22;45916;52.734;6.544;2022-12-11T02:58:25;0.10;99.90
60039;DHT22;45916;52.734;6.544;2022-12-11T03:00:52;0.10;99.90
60039;DHT22;45916;52.734;6.544;2022-12-11T03:03:18;0.20;99.90
60039;DHT22;45916;52.734;6.544;2022-12-11T03:05:44;0.20;99.90
60039;DHT22;45916;52.734;6.544;2022-12-11T03:08:11;0.20;99.90
60039;DHT22;45916;52.734;6.544;2022-12-11T03:10:37;0.20;99.90
60039;DHT22;45916;52.734;6.544;2022-12-11T03:13:03;0.20;99.90
60039;DHT22;45916;52.734;6.544;2022-12-11T03:19:04;0.20;99.90
60039;DHT22;45916;52.734;6.544;2022-12-11T03:21:46;0.20;99.90
60039;DHT22;45916;52.734;6.544;2022-12-11T03:24:19;0.30;99.90
60039;DHT22;45916;52.734;6.544;2022-12-11T03:26:54;0.30;99.90
60039;DHT22;45916;52.734;6.544;2022-12-11T03:29:23;0.20;99.90
60039;DHT22;45916;52.734;6.544;2022-12-11T03:32:04;0.30;99.90
60039;DHT22;45916;52.734;6.544;2022-12-11T03:34:53;0.30;99.90
60039;DHT22;45916;52.734;6.544;2022-12-11T03:37:21;0.30;99.90
60039;DHT22;45916;52.734;6.544;2022-12-11T03:39:51;0.30;99.90
60039;DHT22;45916;52.734;6.544;2022-12-11T03:42:20;0.30;99.90
60039;DHT22;45916;52.734;6.544;2022-12-11T03:44:48;0.30;99.90
60039;DHT22;45916;52.734;6.544;2022-12-11T03:47:16;0.30;99.90
60039;DHT22;45916;52.734;6.544;2022-12-11T03:49:44;0.30;99.90
60039;DHT22;45916;52.734;6.544;2022-12-11T03:52:11;0.30;99.90
60039;DHT22;45916;52.734;6.544;2022-12-11T03:54:40;0.30;99.90
60039;DHT22;45916;52.734;6.544;2022-12-11T03:57:09;0.30;99.90
60039;DHT22;45916;52.734;6.544;2022-12-11T03:59:35;0.30;99.90
60039;DHT22;45916;52.734;6.544;2022-12-11T04:02:01;0.30;99.90
60039;DHT22;45916;52.734;6.544;2022-12-11T04:04:38;0.30;99.90
60039;DHT22;45916;52.734;6.544;2022-12-11T04:07:07;0.30;99.90
60039;DHT22;45916;52.734;6.544;2022-12-11T04:09:34;0.30;99.90
60039;DHT22;45916;52.734;6.544;2022-12-11T04:12:00;0.40;99.90
60039;DHT22;45916;52.734;6.544;2022-12-11T04:14:25;0.30;99.90
60039;DHT22;45916;52.734;6.544;2022-12-11T04:17:10;0.40;99.90
60039;DHT22;45916;52.734;6.544;2022-12-11T04:19:36;0.40;99.90
60039;DHT22;45916;52.734;6.544;2022-12-11T04:22:20;0.30;99.90
60039;DHT22;45916;52.734;6.544;2022-12-11T04:25:05;0.30;99.90
60039;DHT22;45916;52.734;6.544;2022-12-11T04:27:32;0.30;99.90
60039;DHT22;45916;52.734;6.544;2022-12-11T04:30:21;0.30;99.90
60039;DHT22;45916;52.734;6.544;2022-12-11T04:32:48;0.40;99.90
60039;DHT22;45916;52.734;6.544;2022-12-11T04:35:14;0.40;99.90
60039;DHT22;45916;52.734;6.544;2022-12-11T04:37:40;0.40;99.90
60039;DHT22;45916;52.734;6.544;2022-12-11T04:40:08;0.40;99.90
60039;DHT22;45916;52.734;6.544;2022-12-11T04:42:35;0.40;99.90
60039;DHT22;45916;52.734;6.544;2022-12-11T04:45:01;0.30;99.90
60039;DHT22;45916;52.734;6.544;2022-12-11T04:47:26;0.40;99.90
60039;DHT22;45916;52.734;6.544;2022-12-11T04:49:52;0.40;99.90
60039;DHT22;45916;52.734;6.544;2022-12-11T04:52:18;0.40;99.90
60039;DHT22;45916;52.734;6.544;2022-12-11T04:54:44;0.40;99.90
60039;DHT22;45916;52.734;6.544;2022-12-11T04:57:09;0.40;99.90
60039;DHT22;45916;52.734;6.544;2022-12-11T04:59:35;0.40;99.90
60039;DHT22;45916;52.734;6.544;2022-12-11T05:02:02;0.40;99.90
60039;DHT22;45916;52.734;6.544;2022-12-11T05:04:32;0.40;99.90
60039;DHT22;45916;52.734;6.544;2022-12-11T05:06:58;0.40;99.90
60039;DHT22;45916;52.734;6.544;2022-12-11T05:09:24;0.40;99.90
60039;DHT22;45916;52.734;6.544;2022-12-11T05:11:51;0.40;99.90
60039;DHT22;45916;52.734;6.544;2022-12-11T05:14:16;0.40;99.90
60039;DHT22;45916;52.734;6.544;2022-12-11T05:16:42;0.40;99.90
60039;DHT22;45916;52.734;6.544;2022-12-11T05:19:08;0.40;99.90
60039;DHT22;45916;52.734;6.544;2022-12-11T05:21:33;0.40;99.90
60039;DHT22;45916;52.734;6.544;2022-12-11T05:23:59;0.40;99.90
60039;DHT22;45916;52.734;6.544;2022-12-11T05:26:25;0.40;99.90
60039;DHT22;45916;52.734;6.544;2022-12-11T05:28:52;0.40;99.90
60039;DHT22;45916;52.734;6.544;2022-12-11T05:31:23;0.40;99.90
60039;DHT22;45916;52.734;6.544;2022-12-11T05:33:50;0.40;99.90
60039;DHT22;45916;52.734;6.544;2022-12-11T05:36:22;0.40;99.90
60039;DHT22;45916;52.734;6.544;2022-12-11T05:38:49;0.40;99.90
60039;DHT22;45916;52.734;6.544;2022-12-11T05:41:18;0.40;99.90
60039;DHT22;45916;52.734;6.544;2022-12-11T05:43:44;0.40;99.90
60039;DHT22;45916;52.734;6.544;2022-12-11T05:46:19;0.30;99.90
60039;DHT22;45916;52.734;6.544;2022-12-11T05:48:47;0.30;99.90
60039;DHT22;45916;52.734;6.544;2022-12-11T05:51:14;0.40;99.90
60039;DHT22;45916;52.734;6.544;2022-12-11T05:53:41;0.30;99.90
60039;DHT22;45916;52.734;6.544;2022-12-11T05:56:13;0.30;99.90
60039;DHT22;45916;52.734;6.544;2022-12-11T05:58:39;0.30;99.90
60039;DHT22;45916;52.734;6.544;2022-12-11T06:01:11;0.40;99.90
60039;DHT22;45916;52.734;6.544;2022-12-11T06:03:37;0.40;99.90
60039;DHT22;45916;52.734;6.544;2022-12-11T06:06:04;0.40;99.90
60039;DHT22;45916;52.734;6.544;2022-12-11T06:08:30;0.30;99.90
60039;DHT22;45916;52.734;6.544;2022-12-11T06:10:56;0.40;99.90
60039;DHT22;45916;52.734;6.544;2022-12-11T06:13:23;0.30;99.90
60039;DHT22;45916;52.734;6.544;2022-12-11T06:15:48;0.40;99.90
60039;DHT22;45916;52.734;6.544;2022-12-11T06:18:14;0.30;99.90
60039;DHT22;45916;52.734;6.544;2022-12-11T06:20:40;0.30;99.90
60039;DHT22;45916;52.734;6.544;2022-12-11T06:23:06;0.30;99.90
60039;DHT22;45916;52.734;6.544;2022-12-11T06:25:32;0.40;99.90
60039;DHT22;45916;52.734;6.544;2022-12-11T06:27:57;0.40;99.90
60039;DHT22;45916;52.734;6.544;2022-12-11T06:30:23;0.40;99.90
60039;DHT22;45916;52.734;6.544;2022-12-11T06:32:49;0.40;99.90
60039;DHT22;45916;52.734;6.544;2022-12-11T06:35:15;0.40;99.90
60039;DHT22;45916;52.734;6.544;2022-12-11T06:37:40;0.40;99.90
60039;DHT22;45916;52.734;6.544;2022-12-11T06:40:08;0.40;99.90
60039;DHT22;45916;52.734;6.544;2022-12-11T06:42:34;0.40;99.90
60039;DHT22;45916;52.734;6.544;2022-12-11T06:45:00;0.40;99.90
60039;DHT22;45916;52.734;6.544;2022-12-11T06:47:26;0.40;99.90
60039;DHT22;45916;52.734;6.544;2022-12-11T06:49:52;0.40;99.90
60039;DHT22;45916;52.734;6.544;2022-12-11T06:52:19;0.40;99.90
60039;DHT22;45916;52.734;6.544;2022-12-11T06:54:45;0.40;99.90
60039;DHT22;45916;52.734;6.544;2022-12-11T06:57:11;0.40;99.90
60039;DHT22;45916;52.734;6.544;2022-12-11T06:59:36;0.40;99.90
60039;DHT22;45916;52.734;6.544;2022-12-11T07:02:02;0.40;99.90
60039;DHT22;45916;52.734;6.544;2022-12-11T07:04:28;0.40;99.90
60039;DHT22;45916;52.734;6.544;2022-12-11T07:06:55;0.40;99.90
60039;DHT22;45916;52.734;6.544;2022-12-11T07:09:22;0.50;99.90
60039;DHT22;45916;52.734;6.544;2022-12-11T07:11:51;0.50;99.90
60039;DHT22;45916;52.734;6.544;2022-12-11T07:14:17;0.50;99.90
60039;DHT22;45916;52.734;6.544;2022-12-11T07:16:43;0.50;99.90
60039;DHT22;45916;52.734;6.544;2022-12-11T07:19:09;0.50;99.90
60039;DHT22;45916;52.734;6.544;2022-12-11T07:21:35;0.50;99.90
60039;DHT22;45916;52.734;6.544;2022-12-11T07:24:01;0.50;99.90
60039;DHT22;45916;52.734;6.544;2022-12-11T07:26:27;0.50;99.90
60039;DHT22;45916;52.734;6.544;2022-12-11T07:28:56;0.50;99.90
60039;DHT22;45916;52.734;6.544;2022-12-11T07:31:24;0.50;99.90
60039;DHT22;45916;52.734;6.544;2022-12-11T07:34:02;0.50;99.90
60039;DHT22;45916;52.734;6.544;2022-12-11T07:36:29;0.50;99.90
60039;DHT22;45916;52.734;6.544;2022-12-11T07:38:55;0.50;99.90
60039;DHT22;45916;52.734;6.544;2022-12-11T07:41:21;0.50;99.90
60039;DHT22;45916;52.734;6.544;2022-12-11T07:43:47;0.50;99.90
60039;DHT22;45916;52.734;6.544;2022-12-11T07:46:16;0.50;99.90
60039;DHT22;45916;52.734;6.544;2022-12-11T07:48:43;0.50;99.90
60039;DHT22;45916;52.734;6.544;2022-12-11T07:51:15;0.50;99.90
60039;DHT22;45916;52.734;6.544;2022-12-11T07:53:46;0.50;99.90
60039;DHT22;45916;52.734;6.544;2022-12-11T07:56:13;0.50;99.90
60039;DHT22;45916;52.734;6.544;2022-12-11T07:58:40;0.50;99.90
60039;DHT22;45916;52.734;6.544;2022-12-11T08:01:16;0.50;99.90
60039;DHT22;45916;52.734;6.544;2022-12-11T08:03:42;0.60;99.90
60039;DHT22;45916;52.734;6.544;2022-12-11T08:06:08;0.50;99.90
60039;DHT22;45916;52.734;6.544;2022-12-11T08:08:34;0.50;99.90
60039;DHT22;45916;52.734;6.544;2022-12-11T08:11:00;0.50;99.90
60039;DHT22;45916;52.734;6.544;2022-12-11T08:13:26;0.50;99.90
60039;DHT22;45916;52.734;6.544;2022-12-11T08:15:52;0.50;99.90
60039;DHT22;45916;52.734;6.544;2022-12-11T08:18:17;0.50;99.90
60039;DHT22;45916;52.734;6.544;2022-12-11T08:20:43;0.60;99.90
60039;DHT22;45916;52.734;6.544;2022-12-11T08:23:09;0.50;99.90
60039;DHT22;45916;52.734;6.544;2022-12-11T08:25:35;0.60;99.90
60039;DHT22;45916;52.734;6.544;2022-12-11T08:28:00;0.60;99.90
60039;DHT22;45916;52.734;6.544;2022-12-11T08:30:26;0.60;99.90
60039;DHT22;45916;52.734;6.544;2022-12-11T08:32:52;0.60;99.90
60039;DHT22;45916;52.734;6.544;2022-12-11T08:35:18;0.60;99.90
60039;DHT22;45916;52.734;6.544;2022-12-11T08:37:43;0.60;99.90
60039;DHT22;45916;52.734;6.544;2022-12-11T08:40:09;0.70;99.90
60039;DHT22;45916;52.734;6.544;2022-12-11T08:42:37;0.60;99.90
60039;DHT22;45916;52.734;6.544;2022-12-11T08:45:03;0.60;99.90
60039;DHT22;45916;52.734;6.544;2022-12-11T08:47:29;0.60;99.90
60039;DHT22;45916;52.734;6.544;2022-12-11T08:49:54;0.60;99.90
60039;DHT22;45916;52.734;6.544;2022-12-11T08:52:21;0.60;99.90
60039;DHT22;45916;52.734;6.544;2022-12-11T08:54:47;0.60;99.90
60039;DHT22;45916;52.734;6.544;2022-12-11T08:57:13;0.60;99.90
60039;DHT22;45916;52.734;6.544;2022-12-11T08:59:38;0.60;99.90
60039;DHT22;45916;52.734;6.544;2022-12-11T09:02:04;0.60;99.90
60039;DHT22;45916;52.734;6.544;2022-12-11T09:04:30;0.60;99.90
60039;DHT22;45916;52.734;6.544;2022-12-11T09:06:56;0.60;99.90
60039;DHT22;45916;52.734;6.544;2022-12-11T09:09:21;0.60;99.90
60039;DHT22;45916;52.734;6.544;2022-12-11T09:11:47;0.60;99.90
60039;DHT22;45916;52.734;6.544;2022-12-11T09:14:14;0.60;99.90
60039;DHT22;45916;52.734;6.544;2022-12-11T09:16:41;0.60;99.90
60039;DHT22;45916;52.734;6.544;2022-12-11T09:19:10;0.60;99.90
60039;DHT22;45916;52.734;6.544;2022-12-11T09:21:38;0.70;99.90
60039;DHT22;45916;52.734;6.544;2022-12-11T09:24:04;0.70;99.90
60039;DHT22;45916;52.734;6.544;2022-12-11T09:26:30;0.70;99.90
60039;DHT22;45916;52.734;6.544;2022-12-11T09:28:56;0.70;99.90
60039;DHT22;45916;52.734;6.544;2022-12-11T09:31:28;0.70;99.90
60039;DHT22;45916;52.734;6.544;2022-12-11T09:33:59;0.70;99.90
60039;DHT22;45916;52.734;6.544;2022-12-11T09:36:25;0.70;99.90
60039;DHT22;45916;52.734;6.544;2022-12-11T09:38:51;0.70;99.90
60039;DHT22;45916;52.734;6.544;2022-12-11T09:43:47;0.70;99.90
60039;DHT22;45916;52.734;6.544;2022-12-11T09:46:14;0.70;99.90
60039;DHT22;45916;52.734;6.544;2022-12-11T09:48:46;0.70;99.90
60039;DHT22;45916;52.734;6.544;2022-12-11T09:53:53;0.70;99.90
60039;DHT22;45916;52.734;6.544;2022-12-11T09:56:25;0.80;99.90
60039;DHT22;45916;52.734;6.544;2022-12-11T09:59:17;0.80;99.90
60039;DHT22;45916;52.734;6.544;2022-12-11T10:02:13;0.80;99.90
60039;DHT22;45916;52.734;6.544;2022-12-11T10:04:53;0.80;99.90
60039;DHT22;45916;52.734;6.544;2022-12-11T10:18:00;0.90;99.90
60039;DHT22;45916;52.734;6.544;2022-12-11T10:20:31;0.90;99.90
60039;DHT22;45916;52.734;6.544;2022-12-11T10:23:02;0.90;99.90
60039;DHT22;45916;52.734;6.544;2022-12-11T10:25:31;0.90;99.90
60039;DHT22;45916;52.734;6.544;2022-12-11T10:27:59;0.90;99.90
60039;DHT22;45916;52.734;6.544;2022-12-11T10:30:33;0.90;99.90
60039;DHT22;45916;52.734;6.544;2022-12-11T10:35:54;0.90;99.90
60039;DHT22;45916;52.734;6.544;2022-12-11T10:38:26;0.90;99.90
60039;DHT22;45916;52.734;6.544;2022-12-11T10:40:59;1.00;99.90
60039;DHT22;45916;52.734;6.544;2022-12-11T10:43:37;1.00;99.90
60039;DHT22;45916;52.734;6.544;2022-12-11T10:46:05;1.00;99.90
60039;DHT22;45916;52.734;6.544;2022-12-11T10:48:31;1.00;99.90
60039;DHT22;45916;52.734;6.544;2022-12-11T10:51:00;1.00;99.90
60039;DHT22;45916;52.734;6.544;2022-12-11T10:53:27;1.00;99.90
60039;DHT22;45916;52.734;6.544;2022-12-11T10:55:54;1.00;99.90
60039;DHT22;45916;52.734;6.544;2022-12-11T10:58:24;1.00;99.90
60039;DHT22;45916;52.734;6.544;2022-12-11T11:01:09;1.00;99.90
60039;DHT22;45916;52.734;6.544;2022-12-11T11:04:36;1.00;99.90
60039;DHT22;45916;52.734;6.544;2022-12-11T11:06:36;1.00;99.90
60039;DHT22;45916;52.734;6.544;2022-12-11T11:09:02;0.90;99.90
60039;DHT22;45916;52.734;6.544;2022-12-11T11:11:32;0.90;99.90
60039;DHT22;45916;52.734;6.544;2022-12-11T11:14:18;1.00;99.90
60039;DHT22;45916;52.734;6.544;2022-12-11T11:16:46;1.00;99.90
60039;DHT22;45916;52.734;6.544;2022-12-11T11:21:54;1.00;99.90
60039;DHT22;45916;52.734;6.544;2022-12-11T11:24:37;1.00;99.90
60039;DHT22;45916;52.734;6.544;2022-12-11T11:29:55;1.00;99.90
60039;DHT22;45916;52.734;6.544;2022-12-11T11:32:35;1.00;99.90
60039;DHT22;45916;52.734;6.544;2022-12-11T11:37:40;1.10;99.90
60039;DHT22;45916;52.734;6.544;2022-12-11T11:40:21;1.10;99.90
60039;DHT22;45916;52.734;6.544;2022-12-11T11:45:50;1.10;99.90
60039;DHT22;45916;52.734;6.544;2022-12-11T11:51:26;1.10;99.90
60039;DHT22;45916;52.734;6.544;2022-12-11T11:53:58;1.20;99.90
60039;DHT22;45916;52.734;6.544;2022-12-11T11:56:32;1.10;99.90
60039;DHT22;45916;52.734;6.544;2022-12-11T12:01:30;1.10;99.90
60039;DHT22;45916;52.734;6.544;2022-12-11T12:03:56;1.00;99.90
60039;DHT22;45916;52.734;6.544;2022-12-11T12:14:54;1.10;99.90
60039;DHT22;45916;52.734;6.544;2022-12-11T12:20:23;1.10;99.90
60039;DHT22;45916;52.734;6.544;2022-12-11T12:25:46;1.10;99.90
60039;DHT22;45916;52.734;6.544;2022-12-11T12:28:23;1.10;99.90
60039;DHT22;45916;52.734;6.544;2022-12-11T12:42:18;1.10;99.90
60039;DHT22;45916;52.734;6.544;2022-12-11T12:47:14;1.10;99.90
60039;DHT22;45916;52.734;6.544;2022-12-11T12:49:47;1.10;99.90
60039;DHT22;45916;52.734;6.544;2022-12-11T12:52:30;1.10;99.90
60039;DHT22;45916;52.734;6.544;2022-12-11T12:54:59;1.20;99.90
60039;DHT22;45916;52.734;6.544;2022-12-11T12:57:40;1.10;99.90
60039;DHT22;45916;52.734;6.544;2022-12-11T13:00:07;1.10;99.90
60039;DHT22;45916;52.734;6.544;2022-12-11T13:02:46;1.10;99.90
60039;DHT22;45916;52.734;6.544;2022-12-11T13:05:21;1.10;99.90
60039;DHT22;45916;52.734;6.544;2022-12-11T13:07:58;1.10;99.90
60039;DHT22;45916;52.734;6.544;2022-12-11T13:10:31;1.00;99.90
60039;DHT22;45916;52.734;6.544;2022-12-11T13:12:58;1.10;99.90
60039;DHT22;45916;52.734;6.544;2022-12-11T13:15:40;1.10;99.90
60039;DHT22;45916;52.734;6.544;2022-12-11T13:18:29;1.10;99.90
60039;DHT22;45916;52.734;6.544;2022-12-11T13:20:55;1.10;99.90
60039;DHT22;45916;52.734;6.544;2022-12-11T13:23:30;1.10;99.90
60039;DHT22;45916;52.734;6.544;2022-12-11T13:25:58;1.10;99.90
60039;DHT22;45916;52.734;6.544;2022-12-11T13:31:22;1.10;99.90
60039;DHT22;45916;52.734;6.544;2022-12-11T13:33:51;1.10;99.90
60039;DHT22;45916;52.734;6.544;2022-12-11T13:36:35;1.10;99.90
60039;DHT22;45916;52.734;6.544;2022-12-11T13:39:05;1.10;99.90
60039;DHT22;45916;52.734;6.544;2022-12-11T13:41:34;1.10;99.90
60039;DHT22;45916;52.734;6.544;2022-12-11T13:44:01;1.10;99.90
60039;DHT22;45916;52.734;6.544;2022-12-11T13:46:29;1.10;99.90
60039;DHT22;45916;52.734;6.544;2022-12-11T13:49:02;1.10;99.90
60039;DHT22;45916;52.734;6.544;2022-12-11T13:51:31;1.10;99.90
60039;DHT22;45916;52.734;6.544;2022-12-11T13:56:32;1.10;99.90
60039;DHT22;45916;52.734;6.544;2022-12-11T13:58:58;1.10;99.90
60039;DHT22;45916;52.734;6.544;2022-12-11T14:01:29;1.00;99.90
60039;DHT22;45916;52.734;6.544;2022-12-11T14:06:26;1.00;99.90
60039;DHT22;45916;52.734;6.544;2022-12-11T14:08:55;1.10;99.90
60039;DHT22;45916;52.734;6.544;2022-12-11T14:11:28;1.00;99.90
60039;DHT22;45916;52.734;6.544;2022-12-11T14:13:57;1.00;99.90
60039;DHT22;45916;52.734;6.544;2022-12-11T14:16:24;1.00;99.90
60039;DHT22;45916;52.734;6.544;2022-12-11T14:18:52;1.00;99.90
60039;DHT22;45916;52.734;6.544;2022-12-11T14:21:24;0.90;99.90
60039;DHT22;45916;52.734;6.544;2022-12-11T14:24:02;0.90;99.90
60039;DHT22;45916;52.734;6.544;2022-12-11T14:26:34;0.90;99.90
60039;DHT22;45916;52.734;6.544;2022-12-11T14:29:02;0.90;99.90
60039;DHT22;45916;52.734;6.544;2022-12-11T14:31:32;0.90;99.90
60039;DHT22;45916;52.734;6.544;2022-12-11T14:34:24;0.90;99.90
60039;DHT22;45916;52.734;6.544;2022-12-11T14:36:51;0.90;99.90
60039;DHT22;45916;52.734;6.544;2022-12-11T14:42:13;0.80;99.90
60039;DHT22;45916;52.734;6.544;2022-12-11T14:47:29;0.80;99.90
60039;DHT22;45916;52.734;6.544;2022-12-11T14:52:54;0.70;99.90
60039;DHT22;45916;52.734;6.544;2022-12-11T14:55:27;0.70;99.90
60039;DHT22;45916;52.734;6.544;2022-12-11T14:57:56;0.70;99.90
60039;DHT22;45916;52.734;6.544;2022-12-11T15:00:28;0.70;99.90
60039;DHT22;45916;52.734;6.544;2022-12-11T15:02:59;0.70;99.90
60039;DHT22;45916;52.734;6.544;2022-12-11T15:05:26;0.70;99.90
60039;DHT22;45916;52.734;6.544;2022-12-11T15:10:30;0.60;99.90
60039;DHT22;45916;52.734;6.544;2022-12-11T15:12:57;0.60;99.90
60039;DHT22;45916;52.734;6.544;2022-12-11T15:15:23;0.60;99.90
60039;DHT22;45916;52.734;6.544;2022-12-11T15:17:50;0.60;99.90
60039;DHT22;45916;52.734;6.544;2022-12-11T15:20:27;0.60;99.90
60039;DHT22;45916;52.734;6.544;2022-12-11T15:22:59;0.60;99.90
60039;DHT22;45916;52.734;6.544;2022-12-11T15:25:27;0.60;99.90
60039;DHT22;45916;52.734;6.544;2022-12-11T15:27:59;0.60;99.90
60039;DHT22;45916;52.734;6.544;2022-12-11T15:30:28;0.60;99.90
60039;DHT22;45916;52.734;6.544;2022-12-11T15:35:33;0.60;99.90
60039;DHT22;45916;52.734;6.544;2022-12-11T15:37:59;0.60;99.90
60039;DHT22;45916;52.734;6.544;2022-12-11T15:40:26;0.60;99.90
60039;DHT22;45916;52.734;6.544;2022-12-11T15:42:51;0.60;99.90
60039;DHT22;45916;52.734;6.544;2022-12-11T15:45:24;0.60;99.90
60039;DHT22;45916;52.734;6.544;2022-12-11T15:47:52;0.60;99.90
60039;DHT22;45916;52.734;6.544;2022-12-11T15:52:49;0.70;99.90
60039;DHT22;45916;52.734;6.544;2022-12-11T15:55:19;0.70;99.90
60039;DHT22;45916;52.734;6.544;2022-12-11T15:58:11;0.70;99.90
60039;DHT22;45916;52.734;6.544;2022-12-11T16:00:34;0.60;99.90
60039;DHT22;45916;52.734;6.544;2022-12-11T16:03:16;0.60;99.90
60039;DHT22;45916;52.734;6.544;2022-12-11T16:05:43;0.60;99.90
60039;DHT22;45916;52.734;6.544;2022-12-11T16:08:12;0.60;99.90
60039;DHT22;45916;52.734;6.544;2022-12-11T16:10:40;0.70;99.90
60039;DHT22;45916;52.734;6.544;2022-12-11T16:13:07;0.70;99.90
60039;DHT22;45916;52.734;6.544;2022-12-11T16:15:33;0.60;99.90
60039;DHT22;45916;52.734;6.544;2022-12-11T16:18:08;0.70;99.90
60039;DHT22;45916;52.734;6.544;2022-12-11T16:20:36;0.70;99.90
60039;DHT22;45916;52.734;6.544;2022-12-11T16:23:06;0.70;99.90
60039;DHT22;45916;52.734;6.544;2022-12-11T16:25:32;0.70;99.90
60039;DHT22;45916;52.734;6.544;2022-12-11T16:27:59;0.70;99.90
60039;DHT22;45916;52.734;6.544;2022-12-11T16:30:27;0.60;99.90
60039;DHT22;45916;52.734;6.544;2022-12-11T16:32:53;0.70;99.90
60039;DHT22;45916;52.734;6.544;2022-12-11T16:35:22;0.60;99.90
60039;DHT22;45916;52.734;6.544;2022-12-11T16:37:52;0.70;99.90
60039;DHT22;45916;52.734;6.544;2022-12-11T16:40:18;0.70;99.90
60039;DHT22;45916;52.734;6.544;2022-12-11T16:42:45;0.70;99.90
60039;DHT22;45916;52.734;6.544;2022-12-11T16:45:17;0.70;99.90
60039;DHT22;45916;52.734;6.544;2022-12-11T16:47:46;0.70;99.90
60039;DHT22;45916;52.734;6.544;2022-12-11T16:50:13;0.70;99.90
60039;DHT22;45916;52.734;6.544;2022-12-11T16:52:43;0.70;99.90
60039;DHT22;45916;52.734;6.544;2022-12-11T16:55:10;0.70;99.90
60039;DHT22;45916;52.734;6.544;2022-12-11T16:57:36;0.70;99.90
60039;DHT22;45916;52.734;6.544;2022-12-11T17:00:04;0.70;99.90
60039;DHT22;45916;52.734;6.544;2022-12-11T17:02:30;0.70;99.90
60039;DHT22;45916;52.734;6.544;2022-12-11T17:04:56;0.60;99.90
60039;DHT22;45916;52.734;6.544;2022-12-11T17:07:22;0.60;99.90
60039;DHT22;45916;52.734;6.544;2022-12-11T17:09:48;0.60;99.90
60039;DHT22;45916;52.734;6.544;2022-12-11T17:12:13;0.70;99.90
60039;DHT22;45916;52.734;6.544;2022-12-11T17:14:39;0.60;99.90
60039;DHT22;45916;52.734;6.544;2022-12-11T17:17:05;0.60;99.90
60039;DHT22;45916;52.734;6.544;2022-12-11T17:19:30;0.60;99.90
60039;DHT22;45916;52.734;6.544;2022-12-11T17:21:56;0.60;99.90
60039;DHT22;45916;52.734;6.544;2022-12-11T17:24:23;0.60;99.90
60039;DHT22;45916;52.734;6.544;2022-12-11T17:26:49;0.60;99.90
60039;DHT22;45916;52.734;6.544;2022-12-11T17:29:14;0.60;99.90
60039;DHT22;45916;52.734;6.544;2022-12-11T17:31:40;0.60;99.90
60039;DHT22;45916;52.734;6.544;2022-12-11T17:34:06;0.60;99.90
60039;DHT22;45916;52.734;6.544;2022-12-11T17:36:32;0.60;99.90